Time;durP1;ratioP1;P1;durP2;ratioP2;P2;SDS_P1;SDS_P2;PMS_P1;PMS_P2;Temp;Humidity;BMP_temperature;BMP_pressure;BME280_temperature;BME280_humidity;BME280_pressure;Samples;Min_cycle;Max_cycle;Signal;HPM_P1;HPM_P2
2022/04/04 00:02:22;;;;;;;4.30;1.87;;;3.70;99.90;;;;;;5061853;28;20964;-45
2022/04/04 00:04:49;;;;;;;4.73;1.87;;;3.70;99.90;;;;;;5061281;28;20769;-45
2022/04/04 00:07:15;;;;;;;5.40;1.80;;;3.60;99.90;;;;;;5045250;28;20226;-49
2022/04/04 00:09:42;;;;;;;1.80;1.60;;;3.60;99.90;;;;;;5065819;28;20190;-45
2022/04/04 00:12:10;;;;;;;3.63;1.60;;;3.60;99.90;;;;;;5063080;28;20214;-47
2022/04/04 00:14:37;;;;;;;4.10;1.77;;;3.70;99.90;;;;;;5064460;28;20615;-46
2022/04/04 00:17:04;;;;;;;3.33;1.57;;;3.70;99.90;;;;;;5063404;28;20232;-45
2022/04/04 00:19:33;;;;;;;3.50;1.97;;;3.70;99.90;;;;;;5059288;28;22792;-45
2022/04/04 00:22:00;;;;;;;4.07;1.53;;;3.70;99.90;;;;;;5061647;28;20256;-51
2022/04/04 00:24:27;;;;;;;1.57;1.40;;;3.70;99.90;;;;;;5051336;28;21061;-48
2022/04/04 00:26:54;;;;;;;3.73;1.40;;;3.70;99.90;;;;;;5065251;28;20304;-46
2022/04/04 00:29:21;;;;;;;2.67;1.60;;;3.60;99.90;;;;;;5064008;28;20194;-45
2022/04/04 00:31:47;;;;;;;3.90;1.63;;;3.70;99.90;;;;;;5064840;28;20209;-47
2022/04/04 00:34:14;;;;;;;5.47;1.70;;;3.70;99.90;;;;;;5057244;28;20203;-48
2022/04/04 00:36:43;;;;;;;3.63;1.67;;;3.70;99.90;;;;;;5064823;28;20231;-47
2022/04/04 00:39:10;;;;;;;2.97;1.67;;;3.60;99.90;;;;;;5055056;28;20683;-48
2022/04/04 00:41:37;;;;;;;3.60;1.37;;;3.60;99.90;;;;;;5064324;28;20205;-50
2022/04/04 00:44:05;;;;;;;4.00;1.40;;;3.70;99.90;;;;;;5063219;28;20281;-48
2022/04/04 00:46:31;;;;;;;2.30;1.53;;;3.70;99.90;;;;;;5062423;28;20985;-47
2022/04/04 00:48:58;;;;;;;4.07;1.50;;;3.70;99.90;;;;;;5064491;28;20203;-47
2022/04/04 00:51:25;;;;;;;4.33;1.57;;;3.70;99.90;;;;;;5056978;28;20206;-47
2022/04/04 00:53:54;;;;;;;1.97;1.87;;;3.70;99.90;;;;;;5052764;28;20223;-48
2022/04/04 00:56:21;;;;;;;1.93;1.30;;;3.70;99.90;;;;;;5059931;28;20215;-44
2022/04/04 00:58:49;;;;;;;2.97;1.67;;;3.70;99.90;;;;;;5065040;28;20237;-48
2022/04/04 01:01:15;;;;;;;2.77;1.40;;;3.70;99.90;;;;;;5060257;28;20217;-49
2022/04/04 01:03:43;;;;;;;4.93;1.83;;;3.70;99.90;;;;;;5064300;28;20209;-45
2022/04/04 01:06:10;;;;;;;3.83;1.53;;;3.70;99.90;;;;;;5058584;28;20222;-47
2022/04/04 01:08:38;;;;;;;1.53;1.13;;;3.70;99.90;;;;;;5048418;28;20226;-50
2022/04/04 01:11:06;;;;;;;1.97;1.13;;;3.70;99.90;;;;;;5060593;28;20205;-48
2022/04/04 01:13:33;;;;;;;1.23;1.13;;;3.70;99.90;;;;;;5062889;28;20201;-46
2022/04/04 01:16:00;;;;;;;5.00;1.57;;;3.70;99.90;;;;;;5063264;28;20197;-49
2022/04/04 01:18:27;;;;;;;5.27;1.57;;;3.70;99.90;;;;;;5061724;28;20297;-44
2022/04/04 01:20:54;;;;;;;6.20;1.60;;;3.70;99.90;;;;;;5064325;28;20198;-46
2022/04/04 01:23:24;;;;;;;5.97;1.70;;;3.70;99.90;;;;;;5056027;28;20966;-48
2022/04/04 01:25:52;;;;;;;4.10;1.43;;;3.60;99.90;;;;;;5051617;28;20209;-48
2022/04/04 01:28:20;;;;;;;3.50;1.73;;;3.60;99.90;;;;;;5059894;28;20179;-47
2022/04/04 01:30:52;;;;;;;4.23;1.90;;;3.60;99.90;;;;;;5063746;28;20216;-51
2022/04/04 01:33:18;;;;;;;3.10;1.80;;;3.60;99.90;;;;;;5060219;28;20244;-50
2022/04/04 01:35:45;;;;;;;1.73;1.47;;;3.50;99.90;;;;;;5063762;28;20229;-51
2022/04/04 01:38:12;;;;;;;1.83;1.70;;;3.50;99.90;;;;;;5056626;28;20303;-49
2022/04/04 01:40:39;;;;;;;7.03;2.33;;;3.50;99.90;;;;;;5051853;28;20214;-49
2022/04/04 01:43:07;;;;;;;2.23;1.97;;;3.40;99.90;;;;;;5060902;28;20213;-46
2022/04/04 01:48:19;;;;;;;5.30;2.20;;;3.40;99.90;;;;;;5059850;28;20193;-44
2022/04/04 01:50:45;;;;;;;6.13;2.03;;;3.40;99.90;;;;;;5063671;28;20197;-46
2022/04/04 01:53:27;;;;;;;1.87;1.77;;;3.40;99.90;;;;;;5056882;28;20653;-49
2022/04/04 01:55:56;;;;;;;2.10;1.90;;;3.30;99.90;;;;;;5048197;28;20201;-48
2022/04/04 01:58:24;;;;;;;3.47;2.27;;;3.30;99.90;;;;;;5059865;28;20887;-47
2022/04/04 02:00:53;;;;;;;3.63;1.90;;;3.30;99.90;;;;;;5063272;28;20210;-51
2022/04/04 02:03:20;;;;;;;5.00;1.90;;;3.20;99.90;;;;;;5059453;28;20908;-46
2022/04/04 02:05:48;;;;;;;3.13;2.00;;;3.20;99.90;;;;;;5063424;28;20202;-47
2022/04/04 02:08:14;;;;;;;3.93;2.10;;;3.20;99.90;;;;;;5059753;28;20239;-51
2022/04/04 02:10:41;;;;;;;8.00;2.70;;;3.20;99.90;;;;;;5052130;28;20281;-48
2022/04/04 02:13:08;;;;;;;2.70;2.10;;;3.20;99.90;;;;;;5060715;28;20263;-49
2022/04/04 02:15:37;;;;;;;3.10;2.27;;;3.20;99.90;;;;;;5062185;28;20195;-46
2022/04/04 02:18:04;;;;;;;5.93;2.27;;;3.10;99.90;;;;;;5061500;28;20229;-50
2022/04/04 02:20:31;;;;;;;4.20;2.40;;;3.10;99.90;;;;;;5061704;28;20186;-45
2022/04/04 02:22:58;;;;;;;2.67;1.87;;;3.10;99.90;;;;;;5062908;28;20736;-51
2022/04/04 02:25:25;;;;;;;3.80;2.50;;;3.10;99.90;;;;;;5051607;28;20210;-48
2022/04/04 02:27:52;;;;;;;4.20;2.40;;;3.10;99.90;;;;;;5065942;28;20232;-47
2022/04/04 02:30:18;;;;;;;2.83;2.40;;;3.10;99.90;;;;;;5058775;28;20193;-47
2022/04/04 02:32:47;;;;;;;3.40;2.23;;;3.10;99.90;;;;;;5063117;28;20202;-48
2022/04/04 02:35:14;;;;;;;2.50;2.30;;;3.10;99.90;;;;;;5059455;28;20191;-50
2022/04/04 02:37:43;;;;;;;2.70;2.07;;;3.10;99.90;;;;;;5062770;28;20225;-47
2022/04/04 02:40:11;;;;;;;7.70;3.00;;;3.10;99.90;;;;;;5060348;28;20229;-49
2022/04/04 02:42:38;;;;;;;3.90;2.53;;;3.10;99.90;;;;;;5050941;28;20214;-47
2022/04/04 02:45:05;;;;;;;3.23;2.40;;;3.10;99.90;;;;;;5060883;28;20213;-49
2022/04/04 02:47:33;;;;;;;6.87;2.60;;;3.00;99.90;;;;;;5059846;28;20886;-45
2022/04/04 02:50:01;;;;;;;5.63;2.63;;;3.10;99.90;;;;;;5062594;28;20205;-49
2022/04/04 02:52:28;;;;;;;2.67;2.13;;;3.00;99.90;;;;;;5060246;28;20198;-45
2022/04/04 02:54:54;;;;;;;4.07;2.57;;;3.00;99.90;;;;;;5063015;28;20558;-45
2022/04/04 02:57:21;;;;;;;3.43;2.53;;;3.10;99.90;;;;;;5046839;28;20271;-48
2022/04/04 02:59:49;;;;;;;4.70;2.30;;;3.00;99.90;;;;;;5062690;28;20213;-45
2022/04/04 03:02:15;;;;;;;2.50;2.23;;;3.00;99.90;;;;;;5060500;28;20714;-48
2022/04/04 03:04:43;;;;;;;2.90;2.70;;;3.10;99.90;;;;;;5062780;28;20703;-46
2022/04/04 03:07:11;;;;;;;2.63;2.27;;;3.00;99.90;;;;;;5059854;28;20252;-49
2022/04/04 03:09:39;;;;;;;4.67;2.53;;;3.00;99.90;;;;;;5062127;28;20671;-47
2022/04/04 03:12:08;;;;;;;4.50;2.20;;;3.00;99.90;;;;;;5043687;28;20206;-49
2022/04/04 03:14:34;;;;;;;5.23;2.47;;;3.00;99.90;;;;;;5061217;28;20253;-45
2022/04/04 03:17:01;;;;;;;3.23;2.93;;;3.10;99.90;;;;;;5061451;28;20229;-51
2022/04/04 03:19:28;;;;;;;6.00;3.10;;;3.00;99.90;;;;;;5059968;28;20205;-45
2022/04/04 03:21:56;;;;;;;8.10;4.47;;;3.00;99.90;;;;;;5062516;28;20288;-47
2022/04/04 03:24:24;;;;;;;10.20;5.87;;;3.00;99.90;;;;;;5058738;28;20938;-45
2022/04/04 03:26:51;;;;;;;7.30;4.20;;;3.00;99.90;;;;;;5061948;28;20294;-45
2022/04/04 03:29:18;;;;;;;6.80;2.93;;;3.00;99.90;;;;;;5054373;28;20205;-47
2022/04/04 03:31:45;;;;;;;6.90;3.00;;;3.00;99.90;;;;;;5062668;28;20208;-47
2022/04/04 03:34:12;;;;;;;7.30;3.60;;;3.10;99.90;;;;;;5059236;28;20686;-47
2022/04/04 03:36:39;;;;;;;9.73;4.73;;;3.00;99.90;;;;;;5060252;28;20283;-45
2022/04/04 03:39:05;;;;;;;12.97;4.03;;;3.00;99.90;;;;;;5060492;28;20586;-47
2022/04/04 03:41:34;;;;;;;10.50;4.43;;;3.10;99.90;;;;;;5054465;28;20197;-45
2022/04/04 03:44:01;;;;;;;10.03;4.30;;;3.10;99.90;;;;;;5044973;28;20228;-48
2022/04/04 03:46:28;;;;;;;10.23;3.73;;;3.10;99.90;;;;;;5058725;28;21083;-47
2022/04/04 03:48:54;;;;;;;7.73;3.23;;;3.10;99.90;;;;;;5065420;28;20194;-48
2022/04/04 03:51:21;;;;;;;3.30;2.13;;;3.10;99.90;;;;;;5055758;28;20200;-45
2022/04/04 03:53:48;;;;;;;3.50;2.43;;;3.20;99.90;;;;;;5059270;28;20210;-48
2022/04/04 03:56:15;;;;;;;4.13;1.53;;;3.20;99.90;;;;;;5061756;28;20226;-45
2022/04/04 03:58:43;;;;;;;2.63;1.63;;;3.20;99.90;;;;;;5050667;28;20900;-45
2022/04/04 04:01:10;;;;;;;4.63;2.93;;;3.20;99.90;;;;;;5061175;28;20236;-49
2022/04/04 04:03:37;;;;;;;5.93;4.10;;;3.30;99.90;;;;;;5058696;28;20197;-45
2022/04/04 04:06:14;;;;;;;3.03;1.90;;;3.30;99.90;;;;;;5063895;28;20236;-53
2022/04/04 04:08:44;;;;;;;4.47;3.57;;;3.30;99.90;;;;;;5053772;28;20199;-47
2022/04/04 04:11:11;;;;;;;4.40;2.97;;;3.30;99.90;;;;;;5065150;28;20570;-46
2022/04/04 04:13:38;;;;;;;3.10;2.70;;;3.30;99.90;;;;;;5052436;28;20209;-48
2022/04/04 04:16:09;;;;;;;4.93;3.00;;;3.40;99.90;;;;;;5063898;28;20587;-45
2022/04/04 04:18:36;;;;;;;8.43;3.73;;;3.30;99.90;;;;;;5062387;28;20197;-48
2022/04/04 04:21:03;;;;;;;2.93;2.60;;;3.40;99.90;;;;;;5063835;28;20226;-43
2022/04/04 04:23:30;;;;;;;6.70;3.60;;;3.40;99.90;;;;;;5055306;28;20198;-42
2022/04/04 04:25:57;;;;;;;13.60;5.03;;;3.40;99.90;;;;;;5064676;28;20202;-48
2022/04/04 04:28:23;;;;;;;6.10;3.20;;;3.50;99.90;;;;;;5062179;28;20194;-44
2022/04/04 04:30:50;;;;;;;6.00;4.10;;;3.40;99.90;;;;;;5053190;28;20294;-46
2022/04/04 04:33:18;;;;;;;13.10;4.93;;;3.50;99.90;;;;;;5062997;28;20203;-46
2022/04/04 04:35:46;;;;;;;7.77;3.90;;;3.50;99.90;;;;;;5063396;28;20206;-44
2022/04/04 04:38:13;;;;;;;9.20;4.67;;;3.50;99.90;;;;;;5063581;28;20202;-49
2022/04/04 04:40:40;;;;;;;9.70;3.87;;;3.50;99.90;;;;;;5062847;28;20228;-46
2022/04/04 04:43:07;;;;;;;11.87;5.53;;;3.50;99.90;;;;;;5064666;28;20202;-46
2022/04/04 04:45:34;;;;;;;8.47;3.57;;;3.60;99.90;;;;;;5044207;28;20252;-44
2022/04/04 04:48:01;;;;;;;13.97;5.40;;;3.60;99.90;;;;;;5062544;28;20774;-45
2022/04/04 04:50:30;;;;;;;9.93;3.83;;;3.60;99.90;;;;;;5056522;28;20915;-44
2022/04/04 04:52:58;;;;;;;9.07;4.50;;;3.60;99.90;;;;;;5058815;28;20202;-50
2022/04/04 04:55:26;;;;;;;22.57;5.20;;;3.60;99.90;;;;;;5061442;28;20202;-54
2022/04/04 04:57:54;;;;;;;10.47;3.17;;;3.70;99.90;;;;;;5064374;28;20300;-51
2022/04/04 05:00:24;;;;;;;12.47;5.00;;;3.70;99.90;;;;;;5048674;28;20224;-55
2022/04/04 05:03:24;;;;;;;4.50;3.53;;;3.70;99.90;;;;;;5063898;28;20213;-54
2022/04/04 05:05:41;;;;;;;7.67;3.77;;;3.70;99.90;;;;;;5061511;28;20278;-53
2022/04/04 05:08:08;;;;;;;12.37;3.97;;;3.70;99.90;;;;;;5064361;28;20223;-53
2022/04/04 05:10:35;;;;;;;10.00;4.30;;;3.80;99.90;;;;;;5055962;28;20203;-53
2022/04/04 05:13:02;;;;;;;6.83;4.30;;;3.80;99.90;;;;;;5062448;28;20193;-56
2022/04/04 05:15:29;;;;;;;6.40;3.53;;;3.80;99.90;;;;;;5046777;28;20215;-55
2022/04/04 05:17:56;;;;;;;23.40;6.47;;;3.80;99.90;;;;;;5067711;28;20242;-55
2022/04/04 05:20:23;;;;;;;6.57;4.00;;;3.80;99.90;;;;;;5059334;28;20222;-56
2022/04/04 05:22:51;;;;;;;15.23;5.90;;;3.80;99.90;;;;;;5063540;28;20198;-55
2022/04/04 05:25:18;;;;;;;9.93;4.47;;;3.90;99.90;;;;;;5057388;28;20220;-56
2022/04/04 05:27:45;;;;;;;10.53;5.67;;;3.90;99.90;;;;;;5055149;28;20209;-56
2022/04/04 05:30:12;;;;;;;7.97;4.27;;;3.90;99.90;;;;;;5061128;28;20194;-57
2022/04/04 05:32:39;;;;;;;12.77;5.57;;;3.90;99.90;;;;;;5046689;28;20207;-54
2022/04/04 05:35:06;;;;;;;15.10;6.43;;;3.90;99.90;;;;;;5059434;28;20667;-55
2022/04/04 05:37:33;;;;;;;9.13;5.47;;;3.90;99.90;;;;;;5057317;28;20276;-56
2022/04/04 05:40:01;;;;;;;10.50;5.87;;;4.00;99.90;;;;;;5055914;28;20214;-56
2022/04/04 05:42:29;;;;;;;14.37;6.53;;;4.00;99.90;;;;;;5059873;28;20194;-49
2022/04/04 05:44:57;;;;;;;12.63;5.97;;;4.00;99.90;;;;;;5062391;28;20837;-55
2022/04/04 05:47:23;;;;;;;12.17;7.10;;;4.00;99.90;;;;;;5045177;28;20217;-55
2022/04/04 05:49:50;;;;;;;12.27;6.37;;;4.00;99.90;;;;;;5062867;28;20187;-54
2022/04/04 05:52:17;;;;;;;12.37;6.37;;;4.10;99.90;;;;;;5061472;28;20203;-53
2022/04/04 05:54:54;;;;;;;11.70;5.10;;;4.10;99.90;;;;;;5060525;28;20193;-50
2022/04/04 05:57:24;;;;;;;5.67;5.07;;;4.10;99.90;;;;;;5053814;28;20267;-53
2022/04/04 05:59:51;;;;;;;14.67;6.57;;;4.10;99.90;;;;;;5054996;28;20218;-52
2022/04/04 06:02:19;;;;;;;9.40;6.67;;;4.10;99.90;;;;;;5042789;28;20683;-52
2022/04/04 06:04:46;;;;;;;9.57;6.10;;;4.20;99.90;;;;;;5057681;28;20194;-53
2022/04/04 06:07:12;;;;;;;7.87;6.63;;;4.20;99.90;;;;;;5061127;28;20713;-53
2022/04/04 06:09:39;;;;;;;14.70;8.50;;;4.10;99.90;;;;;;5057655;28;20237;-54
2022/04/04 06:12:06;;;;;;;9.33;7.50;;;4.10;99.90;;;;;;5062384;28;20209;-54
2022/04/04 06:14:34;;;;;;;12.37;8.10;;;4.10;99.90;;;;;;5059986;28;20202;-55
2022/04/04 06:17:03;;;;;;;12.97;8.23;;;4.10;99.90;;;;;;5061487;28;20303;-48
2022/04/04 06:19:30;;;;;;;20.60;11.10;;;4.10;99.90;;;;;;5049097;28;20206;-54
2022/04/04 06:21:57;;;;;;;25.97;10.90;;;4.00;99.90;;;;;;5061871;28;20930;-50
2022/04/04 06:24:24;;;;;;;12.03;8.23;;;4.00;99.90;;;;;;5062723;28;20277;-55
2022/04/04 06:26:51;;;;;;;14.83;8.03;;;4.00;99.90;;;;;;5060297;28;20222;-50
2022/04/04 06:29:17;;;;;;;15.47;8.73;;;3.90;99.90;;;;;;5062675;28;20689;-49
2022/04/04 06:31:46;;;;;;;19.57;10.83;;;3.90;99.90;;;;;;5059098;28;20215;-48
2022/04/04 06:34:13;;;;;;;12.77;8.83;;;3.90;99.90;;;;;;5050435;28;20202;-53
2022/04/04 06:36:40;;;;;;;23.00;10.27;;;3.90;99.90;;;;;;5058840;28;20214;-53
2022/04/04 06:39:07;;;;;;;15.37;9.00;;;3.90;99.90;;;;;;5060026;28;20306;-50
2022/04/04 06:41:36;;;;;;;23.27;10.93;;;3.80;99.90;;;;;;5060045;28;20749;-48
2022/04/04 06:44:03;;;;;;;15.77;9.83;;;3.80;99.90;;;;;;5060294;28;20213;-50
2022/04/04 06:46:31;;;;;;;17.37;10.13;;;3.80;99.90;;;;;;5060185;28;20687;-49
2022/04/04 06:49:00;;;;;;;21.60;10.57;;;3.80;99.90;;;;;;5055437;28;20214;-52
2022/04/04 06:51:27;;;;;;;18.87;10.00;;;3.80;99.90;;;;;;5043882;28;20203;-54
2022/04/04 06:53:54;;;;;;;14.27;8.23;;;3.80;99.90;;;;;;5058792;28;20179;-52
2022/04/04 06:56:20;;;;;;;16.80;9.77;;;3.80;99.90;;;;;;5056593;28;20237;-54
2022/04/04 06:58:47;;;;;;;21.20;9.87;;;3.80;99.90;;;;;;5057733;28;20195;-51
2022/04/04 07:01:14;;;;;;;15.73;9.40;;;3.80;99.90;;;;;;5061725;28;20561;-50
2022/04/04 07:03:40;;;;;;;12.07;9.27;;;3.80;99.90;;;;;;5056581;28;20257;-48
2022/04/04 07:06:09;;;;;;;23.87;13.17;;;3.70;99.90;;;;;;5047420;28;20305;-54
2022/04/04 07:08:36;;;;;;;22.17;11.93;;;3.80;99.90;;;;;;5058765;28;20223;-52
2022/04/04 07:11:03;;;;;;;25.50;11.63;;;3.80;99.90;;;;;;5055085;28;20202;-48
2022/04/04 07:13:32;;;;;;;33.00;13.70;;;3.80;99.90;;;;;;5059849;28;20217;-51
2022/04/04 07:15:59;;;;;;;18.33;11.73;;;3.80;99.90;;;;;;5059032;28;20194;-48
2022/04/04 07:18:25;;;;;;;27.27;12.53;;;3.80;99.90;;;;;;5060607;28;20286;-55
2022/04/04 07:20:52;;;;;;;23.90;12.90;;;3.70;99.90;;;;;;5045711;28;21181;-51
2022/04/04 07:23:20;;;;;;;19.30;11.90;;;3.70;99.90;;;;;;5061271;28;20194;-51
2022/04/04 07:25:48;;;;;;;25.97;12.73;;;3.70;99.90;;;;;;5056644;28;21902;-51
2022/04/04 07:28:14;;;;;;;21.17;11.47;;;3.70;99.90;;;;;;5065571;28;20208;-54
2022/04/04 07:30:43;;;;;;;17.60;11.00;;;3.70;99.90;;;;;;5061420;28;20191;-49
2022/04/04 07:33:15;;;;;;;19.13;11.70;;;3.70;99.90;;;;;;5068383;28;20226;-54
2022/04/04 07:35:42;;;;;;;19.07;11.20;;;3.70;99.90;;;;;;5050156;28;20202;-50
2022/04/04 07:38:10;;;;;;;21.07;11.67;;;3.70;99.90;;;;;;5065529;28;20564;-49
2022/04/04 07:40:38;;;;;;;17.30;10.97;;;3.70;99.90;;;;;;5057908;28;20219;-54
2022/04/04 07:43:05;;;;;;;26.53;13.07;;;3.60;99.90;;;;;;5063833;28;20202;-51
2022/04/04 07:45:33;;;;;;;26.33;11.33;;;3.60;99.90;;;;;;5063413;28;20256;-51
2022/04/04 07:48:00;;;;;;;17.37;9.23;;;3.70;99.90;;;;;;5064331;28;20226;-52
2022/04/04 07:50:27;;;;;;;21.23;9.93;;;3.60;99.90;;;;;;5059281;28;20255;-54
2022/04/04 07:52:53;;;;;;;14.67;10.93;;;3.70;99.90;;;;;;5060463;28;20191;-51
2022/04/04 07:55:20;;;;;;;18.50;7.40;;;3.60;99.90;;;;;;5064400;28;20212;-54
2022/04/04 07:57:48;;;;;;;19.53;10.17;;;3.60;99.90;;;;;;5057514;28;20278;-52
2022/04/04 08:00:18;;;;;;;16.97;9.00;;;3.60;99.90;;;;;;5064174;28;20275;-50
2022/04/04 08:02:45;;;;;;;19.13;10.00;;;3.60;99.90;;;;;;5060972;28;20210;-52
2022/04/04 08:05:13;;;;;;;22.33;9.73;;;3.60;99.90;;;;;;5064821;28;20210;-53
2022/04/04 08:07:43;;;;;;;27.03;13.33;;;3.60;99.90;;;;;;5050784;28;20305;-51
2022/04/04 08:10:11;;;;;;;18.53;9.37;;;3.60;99.90;;;;;;5064570;28;20209;-52
2022/04/04 08:12:38;;;;;;;11.00;7.47;;;3.50;99.90;;;;;;5055586;28;20203;-53
2022/04/04 08:15:07;;;;;;;22.90;12.07;;;3.50;99.90;;;;;;5064718;28;20816;-52
2022/04/04 08:17:33;;;;;;;20.43;10.67;;;3.50;99.90;;;;;;5059878;28;20226;-54
2022/04/04 08:20:00;;;;;;;17.33;7.73;;;3.50;99.90;;;;;;5064046;28;20202;-52
2022/04/04 08:22:27;;;;;;;29.87;13.07;;;3.50;99.90;;;;;;5053892;28;20674;-55
2022/04/04 08:24:53;;;;;;;27.57;14.07;;;3.50;99.90;;;;;;5062481;28;20191;-47
2022/04/04 08:27:22;;;;;;;17.27;9.33;;;3.50;99.90;;;;;;5068083;28;20225;-49
2022/04/04 08:29:49;;;;;;;21.77;11.60;;;3.40;99.90;;;;;;5064541;28;20190;-46
2022/04/04 08:32:17;;;;;;;17.90;11.60;;;3.50;99.90;;;;;;5066349;28;20198;-51
2022/04/04 08:34:45;;;;;;;15.70;9.47;;;3.50;99.90;;;;;;5062106;28;20214;-48
2022/04/04 08:37:12;;;;;;;36.03;12.93;;;3.50;99.90;;;;;;5059235;28;20247;-48
2022/04/04 08:39:39;;;;;;;27.93;12.90;;;3.50;99.90;;;;;;5045425;28;20210;-47
2022/04/04 08:42:06;;;;;;;23.50;10.70;;;3.50;99.90;;;;;;5063721;28;20211;-44
2022/04/04 08:44:36;;;;;;;17.53;10.73;;;3.50;99.90;;;;;;5056577;28;20264;-49
2022/04/04 08:47:04;;;;;;;27.43;12.63;;;3.50;99.90;;;;;;5063579;28;20211;-48
2022/04/04 08:49:32;;;;;;;19.10;11.80;;;3.50;99.90;;;;;;5053936;28;20202;-45
2022/04/04 08:51:59;;;;;;;15.73;11.50;;;3.50;99.90;;;;;;5063703;28;20919;-46
2022/04/04 08:54:25;;;;;;;16.97;9.90;;;3.60;99.90;;;;;;5050880;28;20252;-47
2022/04/04 08:56:52;;;;;;;30.37;12.13;;;3.60;99.90;;;;;;5060755;28;20211;-45
2022/04/04 08:59:19;;;;;;;40.93;15.53;;;3.60;99.90;;;;;;5058318;28;20206;-45
2022/04/04 09:01:46;;;;;;;17.33;9.47;;;3.60;99.90;;;;;;5057583;28;20209;-45
2022/04/04 09:04:17;;;;;;;17.40;8.87;;;3.60;99.90;;;;;;5062219;28;20263;-44
2022/04/04 09:06:50;;;;;;;23.00;12.07;;;3.60;99.90;;;;;;5060355;28;21005;-46
2022/04/04 09:09:21;;;;;;;25.53;11.37;;;3.60;99.90;;;;;;5065073;28;20209;-44
2022/04/04 09:11:52;;;;;;;17.93;10.70;;;3.60;99.90;;;;;;5060451;28;20270;-45
2022/04/04 09:14:22;;;;;;;15.43;10.30;;;3.70;99.90;;;;;;5061198;28;20666;-45
2022/04/04 09:16:56;;;;;;;21.87;9.77;;;3.70;99.90;;;;;;5053711;28;20210;-44
2022/04/04 09:19:29;;;;;;;13.73;8.63;;;3.70;99.90;;;;;;5061964;28;20210;-45
2022/04/04 09:22:03;;;;;;;10.77;7.43;;;3.70;99.90;;;;;;5059688;28;20224;-44
2022/04/04 09:24:44;;;;;;;26.13;11.20;;;3.70;99.90;;;;;;5046345;28;20225;-48
2022/04/04 09:27:11;;;;;;;19.83;10.33;;;3.80;99.90;;;;;;5063378;28;20221;-44
2022/04/04 09:29:42;;;;;;;8.63;6.70;;;3.80;99.90;;;;;;5052890;28;20286;-45
2022/04/04 09:32:11;;;;;;;28.57;11.47;;;3.80;99.90;;;;;;5057587;28;20194;-43
2022/04/04 09:35:08;;;;;;;9.37;7.07;;;3.80;99.90;;;;;;5063255;28;20209;-45
2022/04/04 09:37:38;;;;;;;14.03;8.67;;;3.80;99.90;;;;;;5058225;28;20230;-45
2022/04/04 09:40:09;;;;;;;8.50;5.87;;;3.80;99.90;;;;;;5047343;28;20290;-47
2022/04/04 09:42:37;;;;;;;15.73;8.27;;;3.80;99.90;;;;;;5058981;28;20230;-49
2022/04/04 09:45:06;;;;;;;27.23;11.77;;;3.80;99.90;;;;;;5062876;28;20207;-48
2022/04/04 09:47:54;;;;;;;20.07;10.27;;;3.80;99.90;;;;;;5053518;28;20222;-48
2022/04/04 09:50:36;;;;;;;9.80;8.83;;;3.90;99.90;;;;;;5062465;28;20206;-49
2022/04/04 09:53:06;;;;;;;10.67;7.53;;;3.90;99.90;;;;;;5065604;28;20202;-47
2022/04/04 09:55:34;;;;;;;13.17;8.43;;;3.80;99.90;;;;;;5046551;28;20207;-48
2022/04/04 09:58:04;;;;;;;25.33;10.67;;;3.80;99.90;;;;;;5061584;28;20254;-49
2022/04/04 10:00:30;;;;;;;14.97;8.40;;;3.80;99.90;;;;;;5058589;28;20598;-51
2022/04/04 10:02:58;;;;;;;17.43;9.97;;;3.80;99.90;;;;;;5053684;28;20217;-48
2022/04/04 10:05:27;;;;;;;21.47;9.10;;;3.80;99.90;;;;;;5056995;28;20202;-47
2022/04/04 10:07:56;;;;;;;23.53;10.63;;;3.80;99.90;;;;;;5053841;28;20711;-44
2022/04/04 10:10:27;;;;;;;16.03;9.57;;;3.90;99.90;;;;;;5046577;28;20317;-48
2022/04/04 10:12:55;;;;;;;19.03;9.57;;;3.90;99.90;;;;;;5060938;28;20662;-44
2022/04/04 10:15:22;;;;;;;18.23;9.80;;;3.90;99.90;;;;;;5058681;28;20206;-47
2022/04/04 10:17:49;;;;;;;18.83;9.77;;;3.90;99.90;;;;;;5054695;28;20271;-45
2022/04/04 10:20:17;;;;;;;30.43;9.17;;;3.90;99.90;;;;;;5058714;28;20284;-44
2022/04/04 10:22:45;;;;;;;12.40;8.50;;;4.00;99.90;;;;;;5056267;28;20585;-47
2022/04/04 10:25:14;;;;;;;13.77;7.90;;;4.00;99.90;;;;;;5058414;28;20206;-44
2022/04/04 10:27:46;;;;;;;7.57;5.63;;;4.00;99.90;;;;;;5054703;28;20250;-44
2022/04/04 10:30:13;;;;;;;16.73;8.17;;;4.00;99.90;;;;;;5058974;28;20199;-47
2022/04/04 10:32:50;;;;;;;16.17;9.30;;;4.00;99.90;;;;;;5054137;28;20202;-45
2022/04/04 10:35:21;;;;;;;22.90;8.90;;;4.10;99.90;;;;;;5057737;28;20214;-46
2022/04/04 10:37:48;;;;;;;12.20;6.93;;;4.10;99.90;;;;;;5056369;28;20587;-47
2022/04/04 10:40:25;;;;;;;14.93;8.43;;;4.10;99.90;;;;;;5053046;28;20211;-46
2022/04/04 10:43:10;;;;;;;14.40;8.40;;;4.20;99.90;;;;;;5049012;28;20240;-44
2022/04/04 10:45:55;;;;;;;9.43;7.13;;;4.20;99.90;;;;;;5060722;28;20206;-46
2022/04/04 10:48:29;;;;;;;7.73;5.37;;;4.20;99.90;;;;;;5047457;28;20237;-44
2022/04/04 10:51:03;;;;;;;9.03;6.07;;;4.20;99.90;;;;;;5057956;28;20206;-44
2022/04/04 10:53:38;;;;;;;17.00;8.77;;;4.20;99.90;;;;;;5053997;28;23034;-46
2022/04/04 10:56:06;;;;;;;11.67;9.30;;;4.30;99.90;;;;;;5053324;28;20209;-45
2022/04/04 10:58:34;;;;;;;12.63;9.10;;;4.30;99.90;;;;;;5056795;28;20269;-47
2022/04/04 11:01:07;;;;;;;5.90;5.27;;;4.30;99.90;;;;;;5063488;28;20208;-47
2022/04/04 11:03:35;;;;;;;10.30;7.03;;;4.40;99.90;;;;;;5064400;28;20210;-44
2022/04/04 11:09:08;;;;;;;5.53;5.03;;;4.40;99.90;;;;;;5058904;28;20206;-43
2022/04/04 11:11:44;;;;;;;21.43;8.93;;;4.40;99.90;;;;;;5064080;28;20222;-45
2022/04/04 11:14:12;;;;;;;10.03;7.00;;;4.40;99.90;;;;;;5049200;28;20255;-47
2022/04/04 11:17:23;;;;;;;10.57;6.87;;;4.40;99.90;;;;;;5068861;28;20220;-45
2022/04/04 11:19:52;;;;;;;19.20;9.80;;;4.40;99.90;;;;;;5063665;28;20202;-43
2022/04/04 11:22:21;;;;;;;12.57;8.13;;;4.40;99.90;;;;;;5057732;28;20243;-44
2022/04/04 11:24:53;;;;;;;9.53;6.00;;;4.50;99.90;;;;;;5059420;28;20272;-44
2022/04/04 11:27:20;;;;;;;10.07;5.40;;;4.50;99.90;;;;;;5061177;28;20250;-44
2022/04/04 11:29:48;;;;;;;11.07;6.83;;;4.40;99.90;;;;;;5052182;28;20203;-45
2022/04/04 11:32:25;;;;;;;7.20;5.07;;;4.40;99.90;;;;;;5061571;28;20598;-45
2022/04/04 11:34:56;;;;;;;7.13;5.90;;;4.40;99.90;;;;;;5066030;28;20195;-45
2022/04/04 11:37:24;;;;;;;17.23;6.93;;;4.40;99.90;;;;;;5055465;28;20238;-47
2022/04/04 11:39:56;;;;;;;10.33;7.17;;;4.40;99.90;;;;;;5055214;28;20282;-45
2022/04/04 11:42:23;;;;;;;16.63;8.53;;;4.50;99.90;;;;;;5058345;28;20211;-48
2022/04/04 11:44:51;;;;;;;15.60;8.67;;;4.50;99.90;;;;;;5045968;28;20214;-43
2022/04/04 11:47:18;;;;;;;11.50;6.80;;;4.50;99.90;;;;;;5060676;28;20819;-45
2022/04/04 11:49:46;;;;;;;7.13;6.43;;;4.50;99.90;;;;;;5063969;28;20198;-44
2022/04/04 11:52:18;;;;;;;18.77;9.57;;;4.50;99.90;;;;;;5057070;28;20199;-50
2022/04/04 11:54:46;;;;;;;8.60;6.07;;;4.50;99.90;;;;;;5063946;28;20202;-47
2022/04/04 11:57:13;;;;;;;7.00;5.60;;;4.60;99.90;;;;;;5055314;28;20230;-47
2022/04/04 11:59:46;;;;;;;9.50;6.57;;;4.50;99.90;;;;;;5051574;28;20213;-47
2022/04/04 12:02:16;;;;;;;8.13;6.87;;;4.60;99.90;;;;;;5056301;28;20225;-48
2022/04/04 12:04:45;;;;;;;13.97;8.47;;;4.60;99.90;;;;;;5061156;28;20194;-49
2022/04/04 12:07:12;;;;;;;12.50;8.53;;;4.60;99.90;;;;;;5055075;28;20305;-49
2022/04/04 12:09:39;;;;;;;5.53;5.13;;;4.70;99.90;;;;;;5064094;28;20195;-49
2022/04/04 12:12:09;;;;;;;6.70;5.97;;;4.70;99.90;;;;;;5056941;28;20660;-47
2022/04/04 12:14:38;;;;;;;8.83;7.87;;;4.70;99.90;;;;;;5047131;28;20727;-45
2022/04/04 12:17:05;;;;;;;15.83;9.73;;;4.70;99.90;;;;;;5062023;28;20223;-48
2022/04/04 12:19:41;;;;;;;9.07;8.17;;;4.70;99.90;;;;;;5062854;28;20187;-45
2022/04/04 12:24:55;;;;;;;6.93;6.17;;;4.80;99.90;;;;;;5055850;28;20221;-48
2022/04/04 12:24:58;;;;;;;9.00;6.93;;;4.80;99.90;;;;;;5065117;28;20199;-48
2022/04/04 12:27:25;;;;;;;10.07;7.93;;;4.80;99.90;;;;;;5054567;28;20210;-45
2022/04/04 12:29:59;;;;;;;8.90;7.73;;;4.90;99.90;;;;;;5040698;28;20241;-45
2022/04/04 12:32:26;;;;;;;8.47;7.60;;;4.90;99.90;;;;;;5059175;28;20210;-46
2022/04/04 12:34:58;;;;;;;8.90;6.93;;;5.00;99.90;;;;;;5043033;28;21019;-45
2022/04/04 12:37:39;;;;;;;8.23;6.40;;;5.00;99.90;;;;;;5051156;28;20235;-47
2022/04/04 12:40:14;;;;;;;8.57;7.70;;;5.00;99.90;;;;;;5054898;28;20206;-44
2022/04/04 12:42:41;;;;;;;9.73;7.90;;;5.00;99.90;;;;;;5053454;28;20323;-45
2022/04/04 12:45:10;;;;;;;10.80;8.07;;;5.10;99.90;;;;;;5050684;28;20218;-45
2022/04/04 12:47:54;;;;;;;7.43;6.57;;;5.10;99.90;;;;;;5051062;28;20206;-51
2022/04/04 12:50:24;;;;;;;7.07;6.37;;;5.10;99.90;;;;;;5053554;28;20253;-45
2022/04/04 12:52:58;;;;;;;8.13;6.83;;;5.20;99.90;;;;;;5052392;28;20207;-47
2022/04/04 12:55:26;;;;;;;13.73;8.73;;;5.20;99.90;;;;;;5053367;28;20548;-44
2022/04/04 12:57:52;;;;;;;9.60;8.00;;;5.30;99.90;;;;;;5050927;28;20230;-46
2022/04/04 13:00:27;;;;;;;11.00;6.63;;;5.30;99.90;;;;;;5045291;28;20286;-49
2022/04/04 13:02:54;;;;;;;5.73;5.23;;;5.30;99.90;;;;;;5058751;28;20615;-44
2022/04/04 13:05:25;;;;;;;11.97;6.47;;;5.40;99.90;;;;;;5062228;28;20190;-47